NCAR-RAP Real-Time Weather Data

Output produced by METARs form (16 August 2018  19:24 UTC)
found at http://weather.rap.ucar.edu/surface/
 
RJAH 161900Z 35007KT 9999 FEW020 BKN070 23/15 Q1004
RJAH 161800Z 36004KT 9999 FEW020 BKN070 24/19 Q1003
RJAH 161700Z 01005KT 9999 FEW020 BKN070 BKN/// 24/22 Q1003
RJAH 161600Z 36004KT 9999 FEW020 BKN040 BKN070 24/23 Q1003
RJAH 161500Z 35003KT 9999 FEW020 BKN040 BKN/// 25/22 Q1004
RJAH 161400Z 23005KT 9999 FEW020 BKN030 BKN/// 25/21 Q1004
RJAH 161300Z 25003KT 200V270 9999 SCT030 SCT150 BKN/// 25/22 Q1004
RJAH 161200Z 22005KT 9999 FEW030 SCT140 BKN/// 25/21 Q1004
RJAH 161149Z 22005KT 9999 FEW030 SCT140 BKN/// 25/21 Q1004 RMK 2CU030 3AC140 A2966
RJAH 161119Z 23007KT 200V260 9999 FEW020 BKN140 26/24 Q1004 RMK 2CU020 7AC140 A2965
RJAH 161100Z 21009KT 9999 -SHRA FEW020 BKN140 26/25 Q1003
RJAH 161000Z 21011KT 9999 -SHRA FEW020 SCT035 BKN100 28/23 Q1003
RJAH 160928Z 21012KT 9999 -SHRA FEW020 SCT035 BKN100 28/23 Q1003 RMK 2CU020 3CU035 7AC100 A2963
RJAH 160900Z 23010KT 9999 FEW020 FEW030TCU SCT035 BKN100 28/23 Q1003
RJAH 160800Z 22015KT 9999 FEW025 BKN130 29/23 Q1003
RJAH 160723Z 22014G27KT 9999 -SHRA FEW025 BKN150 29/23 Q1003 RMK 2CU025 7AC150 A2963 RWY21 22018G28KT
RJAH 160700Z 22017G27KT 9999 FEW025 BKN150 BKN230 29/22 Q1003
RJAH 160600Z 22017G27KT 9999 FEW025 BKN150 BKN230 30/22 Q1003
RJAH 160500Z 21020G31KT 9999 FEW025 SCT150 BKN230 30/22 Q1003
RJAH 160400Z 21019G31KT 9999 FEW025 SCT150 BKN230 30/22 Q1004
RJAH 160326Z 21020G30KT 9999 FEW020 SCT150 BKN230 31/22 Q1004 RMK 2CU020 3AC150 A2966 RWY21 21018G28KT
RJAH 160306Z 21020G30KT 9999 -SHRA FEW020 SCT150 BKN230 31/22 Q1004 RMK 2CU020 4AC150 A2966 RWY21 21023G31KT
RJAH 160300Z 21022G32KT 9999 FEW020 SCT150 BKN230 31/22 Q1004
RJAH 160200Z 22022G32KT 9999 FEW020 SCT150 BKN230 31/22 Q1005
RJAH 160100Z 21022G34KT 9999 FEW020 SCT180 BKN230 31/22 Q1006
RJAH 160014Z 22020G30KT 9999 FEW015 SCT020 BKN230 31/22 Q1006 RMK 1SC015 3SC020 A2972
RJAH 160000Z 21020KT 9999 FEW015 SCT020 BKN230 29/22 Q1006
RJAH 152342Z 21018G28KT 9999 FEW012 SCT015 BKN230 29/23 Q1006 RMK 1SC012 4SC015 A2972
RJAH 152300Z 21017G27KT 9999 FEW012 BKN015 BKN250 29/23 Q1006
RJAH 152200Z 21015KT 9999 FEW010 BKN015 BKN250 27/24 Q1006
RJAH 152118Z 21014KT 9999 FEW010 BKN015 BKN250 27/24 Q1007 RMK 1SC010 5SC015 A2974 MAX WIND 20KT
RJAH 152100Z 21014KT 9999 FEW010 SCT015 BKN250 27/24 Q1007
RJAH 152000Z 22012KT 170V250 9999 FEW010 BKN015 BKN180 27/25 Q1007
RJAH 151900Z 21013KT 9999 FEW010 BKN015 BKN180 27/24 Q1008
RJAH 151847Z 21013KT 9999 FEW010 BKN015 BKN150 27/24 Q1008 RMK 1SC010 5SC015 5AC150 A2977
RJAH 151800Z 21014KT 9999 SCT015 SCT180 27/24 Q1008
RJAH 151700Z 21012KT 9999 SCT015 SCT120 27/25 Q1008
RJAH 151600Z 21014KT 9999 SCT015 SCT120 27/24 Q1008
RJAH 151500Z 21011KT 9999 FEW015 SCT120 BKN/// 27/23 Q1010
RJAH 151400Z 21009KT 9999 FEW015 BKN/// 27/23 Q1010
RJAH 151300Z 21011KT 9999 SCT015 BKN/// 27/24 Q1011
RJAH 151200Z 21012KT 9999 FEW015 BKN/// 27/23 Q1011
RJAH 151100Z 21014KT 9999 FEW025 BKN/// 28/22 Q1011
RJAH 151000Z 22014KT 9999 FEW025 BKN/// 29/22 Q1011
RJAH 150900Z 22011KT 9999 FEW025 BKN250 29/22 Q1011
RJAH 150800Z 22011KT 9999 FEW025 BKN250 30/22 Q1011
RJAH 150704Z 22015G25KT 9999 FEW025 BKN250 31/22 Q1011 RMK 1CU025 A2986
RJAH 150700Z 22014KT 9999 FEW025 BKN250 32/22 Q1011
RJAH 150600Z 22015KT 9999 FEW025 BKN250 32/22 Q1011
RJAH 150500Z 22016KT 9999 FEW025 BKN250 33/22 Q1012
RJAH 150400Z 21015KT 9999 FEW025 BKN250 33/23 Q1012
RJAH 150300Z 21015KT 180V240 9999 FEW025 BKN250 32/23 Q1013
RJAH 150200Z 22017KT 9999 FEW025 BKN250 32/23 Q1013
RJAH 150100Z 21012KT 9999 FEW020 BKN250 31/24 Q1014
RJAH 150000Z 22012KT 190V250 9999 SCT020 BKN250 31/24 Q1014
RJAH 142300Z 22009KT 9999 SCT015 BKN250 29/26 Q1014
RJAH 142200Z 21010KT 9999 FEW010 BKN250 27/26 Q1014
RJAH 142100Z 21008KT 9999 FEW008 BKN250 27/26 Q1014
RJAH 142000Z 21007KT 9999 FEW015 BKN250 26/25 Q1013
RJAH 141900Z 21007KT 9999 FEW015 BKN/// 26/25 Q1013
RJAH 141800Z 21007KT 9999 FEW015 BKN/// 26/25 Q1013
RJAH 141700Z 21008KT 9999 FEW015 SCT/// 26/26 Q1013
RJAH 141600Z 21005KT 9999 FEW020 SCT/// 26/25 Q1013
RJAH 141500Z 20006KT 9999 FEW030 SCT/// 26/25 Q1013
RJAH 141400Z 20006KT 9999 FEW030 SCT/// 26/25 Q1014
RJAH 141300Z 20006KT 9999 FEW030 SCT/// 27/25 Q1014
RJAH 141200Z 21008KT 9999 FEW030 SCT/// 27/23 Q1014
RJAH 141100Z 22010KT 9999 FEW030 SCT/// 28/22 Q1013
RJAH 141000Z 22009KT 9999 FEW030 SCT250 29/22 Q1013
RJAH 140900Z 21011KT 9999 FEW035 BKN250 30/22 Q1012
RJAH 140800Z 22011KT 9999 SCT035 BKN250 31/22 Q1012